Old Union, Mississippi
Current Conditions -  °F | °C
As of 9:53 PM on Tuesday 21 Oct 2014 (Local Time) from KTUP Reporting Station
Clear Clear  
Wind Chill: 54°   Ceiling: Unl
Heat Index: 54°   Visibility: 10mi
Dew Point: 49°   Wind: 5mph
Humidity: 83%   Direction: 40°NE
Pressure: 30.08"   Gusts: NA
Location:  34.1202°N, 88.7439°W
Report Text: KTUP 220253Z AUTO 04004KT 10SM CLR 12/09 A3008 RMK AO2 SLP183 T01220094 51013 PWINO
Loading
Personal Weather Stations






























Interactive Weather Map
Tropical Storm Tracking
New forecast layout! Learn more

10-Day Weather Forecast

Advertisements
Track Severe Weather on mobile